LFLB/CMF METAR and TAF weather

Enter ICAO airport designator
Station Type Date Time Source
LFLB METAR 2020/02/19 14:30 UTC NOAA

LFLB 191430Z AUTO VRB02KT 9999 BKN045 BKN076 BKN130 08/04 Q1028 TEMPO VRB12KT SHRA SCT025TCU BKN030


Station Type Date Time Source
LFLB Decoded METAR 2020/02/19 14:30 UTC NOAA

Chambery / Aix-Les-Bains, France (LFLB) 45-39N 005-53E 239M
Feb 19, 2020 - 09:30 AM EST / 2020.02.19 1430 UTC
Wind: Variable at 2 MPH (2 KT):0
Visibility: greater than 7 mile(s):0
Sky conditions: mostly cloudy
Weather: Towering cumulus clouds observed
Temperature: 46 F (8 C)
Dew Point: 39 F (4 C)
Relative Humidity: 75%
Pressure (altimeter): 30.36 in. Hg (1028 hPa)
ob: LFLB 191430Z AUTO VRB02KT 9999 BKN045 BKN076 BKN130 08/04 Q1028 TEMPO VRB12KT SHRA SCT025TCU BKN030
cycle: 14

Station Type Date Time Source
LFLB TAF 2020/02/19 12:21 UTC NOAA

TAF LFLB 191100Z 1912/2012 18008KT 9999 BKN030
TEMPO 1912/1918 VRB12KT SHRA SCT025TCU BKN030
BECMG 1918/1921 VRB02KT CAVOK PROB40 2000/2006 2000 BR PROB30
TEMPO 2002/2006 0600 FG VV///

Example: see airport list